sensor_id;sensor_type;location;lat;lon;timestamp;P1;durP1;ratioP1;P2;durP2;ratioP2
75154;SDS011;63735;44.730;37.818;2022-09-30T00:00:29;14.48;;;8.80;;
75154;SDS011;63735;44.730;37.818;2022-09-30T00:02:55;14.32;;;7.45;;
75154;SDS011;63735;44.730;37.818;2022-09-30T00:05:20;18.55;;;7.15;;
75154;SDS011;63735;44.730;37.818;2022-09-30T00:07:46;13.23;;;8.02;;
75154;SDS011;63735;44.730;37.818;2022-09-30T00:10:12;13.10;;;6.57;;
75154;SDS011;63735;44.730;37.818;2022-09-30T00:12:39;13.57;;;7.45;;
75154;SDS011;63735;44.730;37.818;2022-09-30T00:15:05;12.65;;;7.47;;
75154;SDS011;63735;44.730;37.818;2022-09-30T00:17:30;15.73;;;9.13;;
75154;SDS011;63735;44.730;37.818;2022-09-30T00:19:56;10.40;;;7.28;;
75154;SDS011;63735;44.730;37.818;2022-09-30T00:22:22;12.52;;;7.30;;
75154;SDS011;63735;44.730;37.818;2022-09-30T00:24:47;13.27;;;7.43;;
75154;SDS011;63735;44.730;37.818;2022-09-30T00:27:13;16.92;;;8.00;;
75154;SDS011;63735;44.730;37.818;2022-09-30T00:29:42;13.93;;;8.23;;
75154;SDS011;63735;44.730;37.818;2022-09-30T00:32:08;12.93;;;7.53;;
75154;SDS011;63735;44.730;37.818;2022-09-30T00:34:34;16.92;;;8.15;;
75154;SDS011;63735;44.730;37.818;2022-09-30T00:36:59;17.80;;;7.97;;
75154;SDS011;63735;44.730;37.818;2022-09-30T00:39:27;13.05;;;7.70;;
75154;SDS011;63735;44.730;37.818;2022-09-30T00:41:58;16.45;;;8.15;;
75154;SDS011;63735;44.730;37.818;2022-09-30T00:47:51;13.18;;;7.63;;
75154;SDS011;63735;44.730;37.818;2022-09-30T00:49:58;10.52;;;7.40;;
75154;SDS011;63735;44.730;37.818;2022-09-30T00:52:25;15.75;;;8.45;;
75154;SDS011;63735;44.730;37.818;2022-09-30T00:54:51;14.07;;;7.53;;
75154;SDS011;63735;44.730;37.818;2022-09-30T00:57:17;14.00;;;7.75;;
75154;SDS011;63735;44.730;37.818;2022-09-30T00:59:44;20.33;;;8.52;;
75154;SDS011;63735;44.730;37.818;2022-09-30T01:02:12;13.10;;;8.43;;
75154;SDS011;63735;44.730;37.818;2022-09-30T01:04:38;15.02;;;8.00;;
75154;SDS011;63735;44.730;37.818;2022-09-30T01:07:06;16.30;;;8.38;;
75154;SDS011;63735;44.730;37.818;2022-09-30T01:09:33;16.08;;;8.82;;
75154;SDS011;63735;44.730;37.818;2022-09-30T01:11:59;16.48;;;8.98;;
75154;SDS011;63735;44.730;37.818;2022-09-30T01:14:27;17.35;;;8.20;;
75154;SDS011;63735;44.730;37.818;2022-09-30T01:22:06;11.55;;;8.43;;
75154;SDS011;63735;44.730;37.818;2022-09-30T01:24:39;20.27;;;9.43;;
75154;SDS011;63735;44.730;37.818;2022-09-30T01:40:15;16.70;;;8.93;;
75154;SDS011;63735;44.730;37.818;2022-09-30T01:48:04;15.27;;;9.32;;
75154;SDS011;63735;44.730;37.818;2022-09-30T01:59:16;11.50;;;8.10;;
75154;SDS011;63735;44.730;37.818;2022-09-30T02:01:13;14.35;;;7.70;;
75154;SDS011;63735;44.730;37.818;2022-09-30T02:03:47;24.20;;;9.15;;
75154;SDS011;63735;44.730;37.818;2022-09-30T02:06:21;15.38;;;7.82;;
75154;SDS011;63735;44.730;37.818;2022-09-30T02:11:19;12.65;;;8.27;;
75154;SDS011;63735;44.730;37.818;2022-09-30T02:13:53;13.93;;;8.02;;
75154;SDS011;63735;44.730;37.818;2022-09-30T02:16:25;16.48;;;8.57;;
75154;SDS011;63735;44.730;37.818;2022-09-30T02:18:53;14.27;;;8.38;;
75154;SDS011;63735;44.730;37.818;2022-09-30T02:21:22;12.93;;;8.35;;
75154;SDS011;63735;44.730;37.818;2022-09-30T02:23:49;10.57;;;7.63;;
75154;SDS011;63735;44.730;37.818;2022-09-30T02:26:21;21.75;;;9.45;;
75154;SDS011;63735;44.730;37.818;2022-09-30T02:28:50;16.52;;;8.07;;
75154;SDS011;63735;44.730;37.818;2022-09-30T02:31:18;23.73;;;8.77;;
75154;SDS011;63735;44.730;37.818;2022-09-30T02:33:47;18.98;;;9.52;;
75154;SDS011;63735;44.730;37.818;2022-09-30T02:36:19;13.98;;;9.18;;
75154;SDS011;63735;44.730;37.818;2022-09-30T02:38:47;19.67;;;8.82;;
75154;SDS011;63735;44.730;37.818;2022-09-30T02:41:18;13.90;;;8.63;;
75154;SDS011;63735;44.730;37.818;2022-09-30T02:43:47;16.35;;;8.32;;
75154;SDS011;63735;44.730;37.818;2022-09-30T02:46:33;17.05;;;8.63;;
75154;SDS011;63735;44.730;37.818;2022-09-30T02:54:49;19.80;;;8.63;;
75154;SDS011;63735;44.730;37.818;2022-09-30T03:00:00;15.55;;;8.88;;
75154;SDS011;63735;44.730;37.818;2022-09-30T03:02:26;13.80;;;8.40;;
75154;SDS011;63735;44.730;37.818;2022-09-30T03:04:52;11.73;;;8.18;;
75154;SDS011;63735;44.730;37.818;2022-09-30T03:07:18;16.00;;;8.63;;
75154;SDS011;63735;44.730;37.818;2022-09-30T03:09:43;10.77;;;8.13;;
75154;SDS011;63735;44.730;37.818;2022-09-30T03:12:10;11.50;;;7.90;;
75154;SDS011;63735;44.730;37.818;2022-09-30T03:14:52;18.58;;;8.85;;
75154;SDS011;63735;44.730;37.818;2022-09-30T03:20:05;21.63;;;9.00;;
75154;SDS011;63735;44.730;37.818;2022-09-30T03:30:17;16.33;;;8.35;;
75154;SDS011;63735;44.730;37.818;2022-09-30T03:38:02;13.43;;;8.18;;
75154;SDS011;63735;44.730;37.818;2022-09-30T03:40:41;15.93;;;7.90;;
75154;SDS011;63735;44.730;37.818;2022-09-30T03:43:11;15.02;;;8.27;;
75154;SDS011;63735;44.730;37.818;2022-09-30T03:46:00;12.18;;;7.85;;
75154;SDS011;63735;44.730;37.818;2022-09-30T03:48:27;14.45;;;7.72;;
75154;SDS011;63735;44.730;37.818;2022-09-30T03:50:54;13.98;;;8.23;;
75154;SDS011;63735;44.730;37.818;2022-09-30T03:53:20;16.75;;;8.40;;
75154;SDS011;63735;44.730;37.818;2022-09-30T03:55:47;13.65;;;8.00;;
75154;SDS011;63735;44.730;37.818;2022-09-30T04:00:40;17.05;;;8.95;;
75154;SDS011;63735;44.730;37.818;2022-09-30T04:03:09;14.15;;;8.77;;
75154;SDS011;63735;44.730;37.818;2022-09-30T04:05:35;13.15;;;8.05;;
75154;SDS011;63735;44.730;37.818;2022-09-30T04:08:01;18.20;;;9.40;;
75154;SDS011;63735;44.730;37.818;2022-09-30T04:10:26;18.20;;;8.40;;
75154;SDS011;63735;44.730;37.818;2022-09-30T04:12:52;16.58;;;9.13;;
75154;SDS011;63735;44.730;37.818;2022-09-30T04:15:19;14.63;;;8.90;;
75154;SDS011;63735;44.730;37.818;2022-09-30T04:17:44;18.40;;;9.32;;
75154;SDS011;63735;44.730;37.818;2022-09-30T04:20:10;21.67;;;9.77;;
75154;SDS011;63735;44.730;37.818;2022-09-30T04:22:37;17.60;;;9.40;;
75154;SDS011;63735;44.730;37.818;2022-09-30T04:25:03;12.63;;;8.07;;
75154;SDS011;63735;44.730;37.818;2022-09-30T04:27:28;15.00;;;9.70;;
75154;SDS011;63735;44.730;37.818;2022-09-30T04:29:54;14.23;;;8.20;;
75154;SDS011;63735;44.730;37.818;2022-09-30T04:32:20;12.80;;;8.45;;
75154;SDS011;63735;44.730;37.818;2022-09-30T04:34:46;14.85;;;8.18;;
75154;SDS011;63735;44.730;37.818;2022-09-30T04:37:12;18.63;;;8.10;;
75154;SDS011;63735;44.730;37.818;2022-09-30T04:39:38;15.50;;;9.05;;
75154;SDS011;63735;44.730;37.818;2022-09-30T04:42:05;24.77;;;9.85;;
75154;SDS011;63735;44.730;37.818;2022-09-30T04:44:31;18.90;;;10.82;;
75154;SDS011;63735;44.730;37.818;2022-09-30T04:46:57;19.27;;;8.98;;
75154;SDS011;63735;44.730;37.818;2022-09-30T04:49:22;18.02;;;8.52;;
75154;SDS011;63735;44.730;37.818;2022-09-30T04:51:48;25.27;;;9.82;;
75154;SDS011;63735;44.730;37.818;2022-09-30T04:54:14;13.05;;;7.28;;
75154;SDS011;63735;44.730;37.818;2022-09-30T04:56:41;27.58;;;11.25;;
75154;SDS011;63735;44.730;37.818;2022-09-30T04:59:06;23.75;;;11.32;;
75154;SDS011;63735;44.730;37.818;2022-09-30T05:01:32;38.70;;;11.48;;
75154;SDS011;63735;44.730;37.818;2022-09-30T05:03:58;16.40;;;7.85;;
75154;SDS011;63735;44.730;37.818;2022-09-30T05:06:23;23.35;;;9.32;;
75154;SDS011;63735;44.730;37.818;2022-09-30T05:08:49;22.20;;;8.60;;
75154;SDS011;63735;44.730;37.818;2022-09-30T05:11:15;19.77;;;9.35;;
75154;SDS011;63735;44.730;37.818;2022-09-30T05:16:08;20.50;;;9.38;;
75154;SDS011;63735;44.730;37.818;2022-09-30T05:18:34;23.10;;;9.02;;
75154;SDS011;63735;44.730;37.818;2022-09-30T05:21:00;29.30;;;10.13;;
75154;SDS011;63735;44.730;37.818;2022-09-30T05:23:26;25.15;;;10.13;;
75154;SDS011;63735;44.730;37.818;2022-09-30T05:25:55;26.52;;;9.57;;
75154;SDS011;63735;44.730;37.818;2022-09-30T05:28:20;22.38;;;8.05;;
75154;SDS011;63735;44.730;37.818;2022-09-30T05:30:46;36.75;;;8.48;;
75154;SDS011;63735;44.730;37.818;2022-09-30T05:33:14;36.80;;;10.15;;
75154;SDS011;63735;44.730;37.818;2022-09-30T05:35:40;31.15;;;9.80;;
75154;SDS011;63735;44.730;37.818;2022-09-30T05:38:06;24.13;;;8.43;;
75154;SDS011;63735;44.730;37.818;2022-09-30T05:40:32;24.15;;;9.50;;
75154;SDS011;63735;44.730;37.818;2022-09-30T05:42:58;37.10;;;10.40;;
75154;SDS011;63735;44.730;37.818;2022-09-30T05:45:24;32.75;;;8.98;;
75154;SDS011;63735;44.730;37.818;2022-09-30T05:47:50;37.25;;;9.43;;
75154;SDS011;63735;44.730;37.818;2022-09-30T05:50:16;25.83;;;8.65;;
75154;SDS011;63735;44.730;37.818;2022-09-30T05:52:42;20.35;;;7.68;;
75154;SDS011;63735;44.730;37.818;2022-09-30T05:55:07;22.02;;;7.88;;
75154;SDS011;63735;44.730;37.818;2022-09-30T05:57:33;15.65;;;6.28;;
75154;SDS011;63735;44.730;37.818;2022-09-30T05:59:58;21.67;;;6.65;;
75154;SDS011;63735;44.730;37.818;2022-09-30T06:02:24;32.63;;;7.78;;
75154;SDS011;63735;44.730;37.818;2022-09-30T06:04:50;17.05;;;6.55;;
75154;SDS011;63735;44.730;37.818;2022-09-30T06:07:15;17.63;;;6.63;;
75154;SDS011;63735;44.730;37.818;2022-09-30T06:09:41;20.88;;;7.28;;
75154;SDS011;63735;44.730;37.818;2022-09-30T06:12:07;18.73;;;5.15;;
75154;SDS011;63735;44.730;37.818;2022-09-30T06:14:32;17.50;;;4.63;;
75154;SDS011;63735;44.730;37.818;2022-09-30T06:16:58;13.07;;;4.53;;
75154;SDS011;63735;44.730;37.818;2022-09-30T06:19:25;10.40;;;3.78;;
75154;SDS011;63735;44.730;37.818;2022-09-30T06:21:53;10.18;;;5.00;;
75154;SDS011;63735;44.730;37.818;2022-09-30T06:24:18;10.32;;;4.55;;
75154;SDS011;63735;44.730;37.818;2022-09-30T06:26:44;17.40;;;4.38;;
75154;SDS011;63735;44.730;37.818;2022-09-30T06:29:09;12.02;;;4.55;;
75154;SDS011;63735;44.730;37.818;2022-09-30T06:31:35;15.20;;;4.45;;
75154;SDS011;63735;44.730;37.818;2022-09-30T06:34:01;11.23;;;4.57;;
75154;SDS011;63735;44.730;37.818;2022-09-30T06:36:26;12.05;;;4.80;;
75154;SDS011;63735;44.730;37.818;2022-09-30T06:39:01;15.82;;;5.68;;
75154;SDS011;63735;44.730;37.818;2022-09-30T06:41:27;19.33;;;5.20;;
75154;SDS011;63735;44.730;37.818;2022-09-30T06:43:53;7.90;;;3.97;;
75154;SDS011;63735;44.730;37.818;2022-09-30T06:46:19;8.82;;;3.42;;
75154;SDS011;63735;44.730;37.818;2022-09-30T06:48:54;11.15;;;3.50;;
75154;SDS011;63735;44.730;37.818;2022-09-30T06:51:21;6.20;;;3.10;;
75154;SDS011;63735;44.730;37.818;2022-09-30T06:53:51;8.02;;;3.05;;
75154;SDS011;63735;44.730;37.818;2022-09-30T06:56:17;5.15;;;2.50;;
75154;SDS011;63735;44.730;37.818;2022-09-30T06:58:43;5.38;;;3.22;;
75154;SDS011;63735;44.730;37.818;2022-09-30T07:01:10;6.85;;;2.95;;
75154;SDS011;63735;44.730;37.818;2022-09-30T07:03:40;8.52;;;2.80;;
75154;SDS011;63735;44.730;37.818;2022-09-30T07:08:32;9.15;;;2.67;;
75154;SDS011;63735;44.730;37.818;2022-09-30T07:10:58;4.80;;;2.83;;
75154;SDS011;63735;44.730;37.818;2022-09-30T07:13:24;11.90;;;3.25;;
75154;SDS011;63735;44.730;37.818;2022-09-30T07:15:49;11.50;;;3.35;;
75154;SDS011;63735;44.730;37.818;2022-09-30T07:18:22;5.97;;;2.70;;
75154;SDS011;63735;44.730;37.818;2022-09-30T07:20:51;5.65;;;2.85;;
75154;SDS011;63735;44.730;37.818;2022-09-30T07:23:17;6.72;;;2.65;;
75154;SDS011;63735;44.730;37.818;2022-09-30T07:28:15;7.18;;;2.80;;
75154;SDS011;63735;44.730;37.818;2022-09-30T07:30:41;5.18;;;2.80;;
75154;SDS011;63735;44.730;37.818;2022-09-30T07:33:08;6.55;;;2.58;;
75154;SDS011;63735;44.730;37.818;2022-09-30T07:35:33;5.10;;;2.55;;
75154;SDS011;63735;44.730;37.818;2022-09-30T07:37:59;5.45;;;2.78;;
75154;SDS011;63735;44.730;37.818;2022-09-30T07:40:25;6.20;;;2.63;;
75154;SDS011;63735;44.730;37.818;2022-09-30T07:42:55;6.70;;;2.55;;
75154;SDS011;63735;44.730;37.818;2022-09-30T07:45:22;7.80;;;2.90;;
75154;SDS011;63735;44.730;37.818;2022-09-30T07:47:48;4.53;;;2.38;;
75154;SDS011;63735;44.730;37.818;2022-09-30T07:50:13;9.60;;;2.75;;
75154;SDS011;63735;44.730;37.818;2022-09-30T07:52:40;6.57;;;2.10;;
75154;SDS011;63735;44.730;37.818;2022-09-30T07:55:05;3.90;;;1.95;;
75154;SDS011;63735;44.730;37.818;2022-09-30T07:57:31;5.95;;;2.50;;
75154;SDS011;63735;44.730;37.818;2022-09-30T07:59:57;11.30;;;2.90;;
75154;SDS011;63735;44.730;37.818;2022-09-30T08:02:22;5.63;;;2.22;;
75154;SDS011;63735;44.730;37.818;2022-09-30T08:04:48;5.90;;;2.78;;
75154;SDS011;63735;44.730;37.818;2022-09-30T08:07:14;4.95;;;2.47;;
75154;SDS011;63735;44.730;37.818;2022-09-30T08:09:40;4.57;;;2.70;;
75154;SDS011;63735;44.730;37.818;2022-09-30T08:12:06;4.32;;;2.25;;
75154;SDS011;63735;44.730;37.818;2022-09-30T08:14:31;4.05;;;2.20;;
75154;SDS011;63735;44.730;37.818;2022-09-30T08:16:57;4.18;;;2.47;;
75154;SDS011;63735;44.730;37.818;2022-09-30T08:19:25;7.53;;;2.85;;
75154;SDS011;63735;44.730;37.818;2022-09-30T08:21:51;6.75;;;2.95;;
75154;SDS011;63735;44.730;37.818;2022-09-30T08:24:19;5.85;;;2.70;;
75154;SDS011;63735;44.730;37.818;2022-09-30T08:26:45;12.15;;;3.33;;
75154;SDS011;63735;44.730;37.818;2022-09-30T08:29:10;12.45;;;2.72;;
75154;SDS011;63735;44.730;37.818;2022-09-30T08:31:38;8.23;;;2.88;;
75154;SDS011;63735;44.730;37.818;2022-09-30T08:34:03;14.30;;;3.08;;
75154;SDS011;63735;44.730;37.818;2022-09-30T08:36:29;12.02;;;2.92;;
75154;SDS011;63735;44.730;37.818;2022-09-30T08:38:54;5.63;;;2.67;;
75154;SDS011;63735;44.730;37.818;2022-09-30T08:43:59;5.72;;;2.83;;
75154;SDS011;63735;44.730;37.818;2022-09-30T08:51:49;3.40;;;2.40;;
75154;SDS011;63735;44.730;37.818;2022-09-30T08:54:17;4.65;;;2.80;;
75154;SDS011;63735;44.730;37.818;2022-09-30T08:56:44;7.97;;;3.00;;
75154;SDS011;63735;44.730;37.818;2022-09-30T09:01:45;11.18;;;3.05;;
75154;SDS011;63735;44.730;37.818;2022-09-30T09:04:13;8.30;;;4.38;;
75154;SDS011;63735;44.730;37.818;2022-09-30T09:11:58;4.25;;;2.60;;
75154;SDS011;63735;44.730;37.818;2022-09-30T09:19:37;8.52;;;2.60;;
75154;SDS011;63735;44.730;37.818;2022-09-30T09:22:06;5.03;;;2.10;;
75154;SDS011;63735;44.730;37.818;2022-09-30T09:24:36;4.72;;;2.22;;
75154;SDS011;63735;44.730;37.818;2022-09-30T09:32:23;8.63;;;2.72;;
75154;SDS011;63735;44.730;37.818;2022-09-30T09:34:50;9.35;;;2.50;;
75154;SDS011;63735;44.730;37.818;2022-09-30T09:43:22;6.90;;;2.55;;
75154;SDS011;63735;44.730;37.818;2022-09-30T09:45:48;4.78;;;2.50;;
75154;SDS011;63735;44.730;37.818;2022-09-30T09:48:17;4.63;;;2.47;;
75154;SDS011;63735;44.730;37.818;2022-09-30T09:53:36;4.00;;;2.05;;
75154;SDS011;63735;44.730;37.818;2022-09-30T09:56:04;4.47;;;2.53;;
75154;SDS011;63735;44.730;37.818;2022-09-30T10:01:29;4.85;;;2.30;;
75154;SDS011;63735;44.730;37.818;2022-09-30T10:04:09;3.92;;;1.95;;
75154;SDS011;63735;44.730;37.818;2022-09-30T10:06:50;5.95;;;2.10;;
75154;SDS011;63735;44.730;37.818;2022-09-30T10:11:48;2.05;;;1.33;;
75154;SDS011;63735;44.730;37.818;2022-09-30T10:14:18;2.90;;;1.80;;
75154;SDS011;63735;44.730;37.818;2022-09-30T10:16:45;2.88;;;2.28;;
75154;SDS011;63735;44.730;37.818;2022-09-30T10:19:20;9.85;;;2.90;;
75154;SDS011;63735;44.730;37.818;2022-09-30T10:21:47;5.38;;;2.55;;
75154;SDS011;63735;44.730;37.818;2022-09-30T10:24:23;3.70;;;2.10;;
75154;SDS011;63735;44.730;37.818;2022-09-30T10:26:51;5.97;;;2.70;;
75154;SDS011;63735;44.730;37.818;2022-09-30T10:31:51;4.88;;;2.17;;
75154;SDS011;63735;44.730;37.818;2022-09-30T10:36:49;4.53;;;2.60;;
75154;SDS011;63735;44.730;37.818;2022-09-30T10:39:24;5.57;;;2.50;;
75154;SDS011;63735;44.730;37.818;2022-09-30T10:41:51;5.78;;;2.10;;
75154;SDS011;63735;44.730;37.818;2022-09-30T10:44:24;4.63;;;2.28;;
75154;SDS011;63735;44.730;37.818;2022-09-30T10:46:50;3.97;;;2.28;;
75154;SDS011;63735;44.730;37.818;2022-09-30T10:51:49;3.65;;;1.92;;
75154;SDS011;63735;44.730;37.818;2022-09-30T10:57:02;4.43;;;2.35;;
75154;SDS011;63735;44.730;37.818;2022-09-30T10:59:34;6.60;;;2.03;;
75154;SDS011;63735;44.730;37.818;2022-09-30T11:04:58;4.50;;;2.20;;
75154;SDS011;63735;44.730;37.818;2022-09-30T11:15:12;3.85;;;2.50;;
75154;SDS011;63735;44.730;37.818;2022-09-30T11:17:48;5.93;;;2.30;;
75154;SDS011;63735;44.730;37.818;2022-09-30T11:22:49;3.25;;;1.95;;
75154;SDS011;63735;44.730;37.818;2022-09-30T11:25:18;2.25;;;1.38;;
75154;SDS011;63735;44.730;37.818;2022-09-30T11:30:23;7.63;;;2.35;;
75154;SDS011;63735;44.730;37.818;2022-09-30T11:42:58;5.30;;;2.22;;
75154;SDS011;63735;44.730;37.818;2022-09-30T11:55:30;4.65;;;2.17;;
75154;SDS011;63735;44.730;37.818;2022-09-30T11:58:01;5.55;;;2.80;;
75154;SDS011;63735;44.730;37.818;2022-09-30T12:00:29;4.72;;;1.98;;
75154;SDS011;63735;44.730;37.818;2022-09-30T12:02:58;5.20;;;2.17;;
75154;SDS011;63735;44.730;37.818;2022-09-30T12:05:36;2.70;;;1.85;;
75154;SDS011;63735;44.730;37.818;2022-09-30T12:10:42;2.97;;;1.95;;
75154;SDS011;63735;44.730;37.818;2022-09-30T12:13:10;8.93;;;2.30;;
75154;SDS011;63735;44.730;37.818;2022-09-30T12:15:39;5.15;;;2.20;;
75154;SDS011;63735;44.730;37.818;2022-09-30T12:18:09;3.50;;;2.10;;
75154;SDS011;63735;44.730;37.818;2022-09-30T12:20:36;4.80;;;1.75;;
75154;SDS011;63735;44.730;37.818;2022-09-30T12:23:15;4.63;;;2.08;;
75154;SDS011;63735;44.730;37.818;2022-09-30T12:25:52;3.53;;;1.77;;
75154;SDS011;63735;44.730;37.818;2022-09-30T12:28:24;4.13;;;1.77;;
75154;SDS011;63735;44.730;37.818;2022-09-30T12:36:41;2.70;;;1.80;;
75154;SDS011;63735;44.730;37.818;2022-09-30T12:41:53;4.68;;;1.70;;
75154;SDS011;63735;44.730;37.818;2022-09-30T12:46:52;3.78;;;1.60;;
75154;SDS011;63735;44.730;37.818;2022-09-30T12:49:21;5.05;;;2.10;;
75154;SDS011;63735;44.730;37.818;2022-09-30T12:51:48;4.70;;;1.80;;
75154;SDS011;63735;44.730;37.818;2022-09-30T12:54:24;4.57;;;1.45;;
75154;SDS011;63735;44.730;37.818;2022-09-30T12:56:52;4.47;;;1.92;;
75154;SDS011;63735;44.730;37.818;2022-09-30T12:59:22;4.35;;;1.50;;
75154;SDS011;63735;44.730;37.818;2022-09-30T13:01:49;1.90;;;1.50;;
75154;SDS011;63735;44.730;37.818;2022-09-30T13:04:16;4.22;;;1.50;;
75154;SDS011;63735;44.730;37.818;2022-09-30T13:19:35;4.35;;;1.80;;
75154;SDS011;63735;44.730;37.818;2022-09-30T13:27:32;5.45;;;1.88;;
75154;SDS011;63735;44.730;37.818;2022-09-30T13:29:59;6.72;;;2.05;;
75154;SDS011;63735;44.730;37.818;2022-09-30T13:32:31;4.32;;;2.50;;
75154;SDS011;63735;44.730;37.818;2022-09-30T13:34:58;3.92;;;2.17;;
75154;SDS011;63735;44.730;37.818;2022-09-30T13:37:34;5.13;;;2.00;;
75154;SDS011;63735;44.730;37.818;2022-09-30T13:40:00;2.70;;;1.60;;
75154;SDS011;63735;44.730;37.818;2022-09-30T13:42:29;7.22;;;1.88;;
75154;SDS011;63735;44.730;37.818;2022-09-30T13:50:17;5.35;;;2.45;;
75154;SDS011;63735;44.730;37.818;2022-09-30T13:52:44;6.78;;;2.28;;
75154;SDS011;63735;44.730;37.818;2022-09-30T13:57:47;4.28;;;1.92;;
75154;SDS011;63735;44.730;37.818;2022-09-30T14:00:16;6.25;;;2.33;;
75154;SDS011;63735;44.730;37.818;2022-09-30T14:07:48;3.88;;;1.77;;
75154;SDS011;63735;44.730;37.818;2022-09-30T14:12:55;5.35;;;2.55;;
75154;SDS011;63735;44.730;37.818;2022-09-30T14:23:20;4.70;;;2.20;;
75154;SDS011;63735;44.730;37.818;2022-09-30T14:28:16;9.88;;;3.50;;
75154;SDS011;63735;44.730;37.818;2022-09-30T14:30:44;6.68;;;2.53;;
75154;SDS011;63735;44.730;37.818;2022-09-30T14:33:29;4.32;;;2.30;;
75154;SDS011;63735;44.730;37.818;2022-09-30T14:35:59;6.70;;;2.58;;
75154;SDS011;63735;44.730;37.818;2022-09-30T14:38:26;6.70;;;3.00;;
75154;SDS011;63735;44.730;37.818;2022-09-30T14:40:56;7.10;;;2.53;;
75154;SDS011;63735;44.730;37.818;2022-09-30T14:43:24;7.47;;;2.33;;
75154;SDS011;63735;44.730;37.818;2022-09-30T14:45:53;6.90;;;2.80;;
75154;SDS011;63735;44.730;37.818;2022-09-30T14:48:22;4.57;;;2.42;;
75154;SDS011;63735;44.730;37.818;2022-09-30T14:53:27;4.63;;;2.60;;
75154;SDS011;63735;44.730;37.818;2022-09-30T14:55:55;6.53;;;3.70;;
75154;SDS011;63735;44.730;37.818;2022-09-30T15:00:57;7.95;;;3.28;;
75154;SDS011;63735;44.730;37.818;2022-09-30T15:03:24;5.57;;;3.30;;
75154;SDS011;63735;44.730;37.818;2022-09-30T15:05:51;6.18;;;3.22;;
75154;SDS011;63735;44.730;37.818;2022-09-30T15:08:18;11.82;;;3.90;;
75154;SDS011;63735;44.730;37.818;2022-09-30T15:10:48;6.00;;;3.40;;
75154;SDS011;63735;44.730;37.818;2022-09-30T15:13:16;7.88;;;3.97;;
75154;SDS011;63735;44.730;37.818;2022-09-30T15:15:43;7.30;;;4.03;;
75154;SDS011;63735;44.730;37.818;2022-09-30T15:18:25;9.63;;;4.25;;
75154;SDS011;63735;44.730;37.818;2022-09-30T15:20:52;10.75;;;4.55;;
75154;SDS011;63735;44.730;37.818;2022-09-30T15:23:23;9.50;;;5.45;;
75154;SDS011;63735;44.730;37.818;2022-09-30T15:25:49;8.43;;;4.50;;
75154;SDS011;63735;44.730;37.818;2022-09-30T15:28:17;22.02;;;6.78;;
75154;SDS011;63735;44.730;37.818;2022-09-30T15:30:43;14.85;;;7.78;;
75154;SDS011;63735;44.730;37.818;2022-09-30T15:33:16;10.98;;;6.22;;
75154;SDS011;63735;44.730;37.818;2022-09-30T15:35:43;7.43;;;5.70;;
75154;SDS011;63735;44.730;37.818;2022-09-30T15:38:31;7.15;;;4.88;;
75154;SDS011;63735;44.730;37.818;2022-09-30T15:41:06;15.27;;;6.57;;
75154;SDS011;63735;44.730;37.818;2022-09-30T15:48:42;10.18;;;5.68;;
75154;SDS011;63735;44.730;37.818;2022-09-30T15:51:27;17.17;;;8.52;;
75154;SDS011;63735;44.730;37.818;2022-09-30T15:53:58;10.45;;;5.82;;
75154;SDS011;63735;44.730;37.818;2022-09-30T15:56:36;15.73;;;6.20;;
75154;SDS011;63735;44.730;37.818;2022-09-30T16:01:35;24.13;;;8.48;;
75154;SDS011;63735;44.730;37.818;2022-09-30T16:04:43;19.80;;;7.85;;
75154;SDS011;63735;44.730;37.818;2022-09-30T16:09:50;23.83;;;5.68;;
75154;SDS011;63735;44.730;37.818;2022-09-30T16:12:18;23.35;;;5.43;;
75154;SDS011;63735;44.730;37.818;2022-09-30T16:17:15;31.88;;;5.80;;
75154;SDS011;63735;44.730;37.818;2022-09-30T16:19:45;21.80;;;4.22;;
75154;SDS011;63735;44.730;37.818;2022-09-30T16:25:00;29.70;;;4.60;;
75154;SDS011;63735;44.730;37.818;2022-09-30T16:27:28;28.83;;;4.97;;
75154;SDS011;63735;44.730;37.818;2022-09-30T16:29:56;23.50;;;4.47;;
75154;SDS011;63735;44.730;37.818;2022-09-30T16:32:22;33.33;;;4.57;;
75154;SDS011;63735;44.730;37.818;2022-09-30T16:34:48;18.48;;;4.78;;
75154;SDS011;63735;44.730;37.818;2022-09-30T16:37:16;21.55;;;4.45;;
75154;SDS011;63735;44.730;37.818;2022-09-30T16:39:43;15.02;;;4.88;;
75154;SDS011;63735;44.730;37.818;2022-09-30T16:42:17;24.08;;;4.00;;
75154;SDS011;63735;44.730;37.818;2022-09-30T16:44:43;11.45;;;3.30;;
75154;SDS011;63735;44.730;37.818;2022-09-30T16:47:16;17.88;;;3.88;;
75154;SDS011;63735;44.730;37.818;2022-09-30T16:49:45;8.63;;;3.40;;
75154;SDS011;63735;44.730;37.818;2022-09-30T16:52:11;11.35;;;5.15;;
75154;SDS011;63735;44.730;37.818;2022-09-30T16:54:37;14.57;;;3.85;;
75154;SDS011;63735;44.730;37.818;2022-09-30T16:57:03;13.30;;;3.53;;
75154;SDS011;63735;44.730;37.818;2022-09-30T16:59:29;11.63;;;4.05;;
75154;SDS011;63735;44.730;37.818;2022-09-30T17:01:58;10.07;;;4.20;;
75154;SDS011;63735;44.730;37.818;2022-09-30T17:04:25;13.57;;;3.90;;
75154;SDS011;63735;44.730;37.818;2022-09-30T17:06:51;12.68;;;4.32;;
75154;SDS011;63735;44.730;37.818;2022-09-30T17:09:18;20.52;;;4.63;;
75154;SDS011;63735;44.730;37.818;2022-09-30T17:11:44;10.75;;;4.63;;
75154;SDS011;63735;44.730;37.818;2022-09-30T17:14:10;9.80;;;5.07;;
75154;SDS011;63735;44.730;37.818;2022-09-30T17:16:36;13.45;;;7.20;;
75154;SDS011;63735;44.730;37.818;2022-09-30T17:19:02;18.30;;;9.00;;
75154;SDS011;63735;44.730;37.818;2022-09-30T17:21:29;14.50;;;8.07;;
75154;SDS011;63735;44.730;37.818;2022-09-30T17:23:55;12.65;;;6.70;;
75154;SDS011;63735;44.730;37.818;2022-09-30T17:26:24;7.55;;;5.18;;
75154;SDS011;63735;44.730;37.818;2022-09-30T17:28:50;11.57;;;4.72;;
75154;SDS011;63735;44.730;37.818;2022-09-30T17:31:16;4.93;;;3.53;;
75154;SDS011;63735;44.730;37.818;2022-09-30T17:33:42;5.47;;;3.55;;
75154;SDS011;63735;44.730;37.818;2022-09-30T17:36:09;8.63;;;3.20;;
75154;SDS011;63735;44.730;37.818;2022-09-30T17:38:35;5.38;;;3.08;;
75154;SDS011;63735;44.730;37.818;2022-09-30T17:41:02;5.70;;;2.83;;
75154;SDS011;63735;44.730;37.818;2022-09-30T17:43:47;4.18;;;2.88;;
75154;SDS011;63735;44.730;37.818;2022-09-30T17:46:15;8.30;;;3.13;;
75154;SDS011;63735;44.730;37.818;2022-09-30T17:48:43;6.47;;;3.17;;
75154;SDS011;63735;44.730;37.818;2022-09-30T17:51:13;5.90;;;3.47;;
75154;SDS011;63735;44.730;37.818;2022-09-30T17:53:41;8.45;;;3.55;;
75154;SDS011;63735;44.730;37.818;2022-09-30T17:56:13;8.02;;;3.40;;
75154;SDS011;63735;44.730;37.818;2022-09-30T17:58:45;7.68;;;3.92;;
75154;SDS011;63735;44.730;37.818;2022-09-30T18:01:13;7.82;;;3.65;;
75154;SDS011;63735;44.730;37.818;2022-09-30T18:03:39;9.50;;;4.63;;
75154;SDS011;63735;44.730;37.818;2022-09-30T18:06:05;7.43;;;3.63;;
75154;SDS011;63735;44.730;37.818;2022-09-30T18:08:32;7.82;;;3.85;;
75154;SDS011;63735;44.730;37.818;2022-09-30T18:10:59;5.75;;;3.63;;
75154;SDS011;63735;44.730;37.818;2022-09-30T18:13:28;12.27;;;4.93;;
75154;SDS011;63735;44.730;37.818;2022-09-30T18:15:59;16.83;;;10.52;;
75154;SDS011;63735;44.730;37.818;2022-09-30T18:18:32;31.20;;;16.30;;
75154;SDS011;63735;44.730;37.818;2022-09-30T18:23:23;21.13;;;9.70;;
75154;SDS011;63735;44.730;37.818;2022-09-30T18:25:49;16.73;;;10.52;;
75154;SDS011;63735;44.730;37.818;2022-09-30T18:28:16;13.70;;;7.90;;
75154;SDS011;63735;44.730;37.818;2022-09-30T18:30:42;18.65;;;9.10;;